createdAt,value
2019-01-23T00:00:51.786Z,19.19
2019-01-23T00:01:51.031Z,19.19
2019-01-23T00:02:47.657Z,19.19
2019-01-23T00:03:44.267Z,19.19
2019-01-23T00:04:40.892Z,19.19
2019-01-23T00:05:37.595Z,19.19
2019-01-23T00:06:34.349Z,19.19
2019-01-23T00:07:31.493Z,19.19
2019-01-23T00:08:28.201Z,19.19
2019-01-23T00:09:24.822Z,19.12
2019-01-23T00:10:21.778Z,19.12
2019-01-23T00:11:18.459Z,19.12
2019-01-23T00:12:15.377Z,19.12
2019-01-23T00:13:11.995Z,19.12
2019-01-23T00:14:08.649Z,19.12
2019-01-23T00:15:05.281Z,19.12
2019-01-23T00:16:02.168Z,19.12
2019-01-23T00:16:58.802Z,19.12
2019-01-23T00:17:55.818Z,19.12
2019-01-23T00:18:52.526Z,19.06
2019-01-23T00:19:49.138Z,19.06
2019-01-23T00:20:46.021Z,19.06
2019-01-23T00:21:42.646Z,19.06
2019-01-23T00:22:39.489Z,19.06
2019-01-23T00:23:36.107Z,19.06
2019-01-23T00:24:32.761Z,19.06
2019-01-23T00:25:29.370Z,19.06
2019-01-23T00:26:26.012Z,19.06
2019-01-23T00:27:22.770Z,19.06
2019-01-23T00:28:19.469Z,19.06
2019-01-23T00:29:16.102Z,19.06
2019-01-23T00:30:14.901Z,19.00
2019-01-23T00:31:11.578Z,19.00
2019-01-23T00:32:08.208Z,19.00
2019-01-23T00:33:04.910Z,19.00
2019-01-23T00:34:01.831Z,19.00
2019-01-23T00:34:58.460Z,19.00
2019-01-23T00:35:55.529Z,19.00
2019-01-23T00:36:52.254Z,19.00
2019-01-23T00:37:48.885Z,19.00
2019-01-23T00:38:45.554Z,19.00
2019-01-23T00:39:42.169Z,19.00
2019-01-23T00:40:38.793Z,18.94
2019-01-23T00:41:35.407Z,18.94
2019-01-23T00:42:32.073Z,18.94
2019-01-23T00:43:28.784Z,18.94
2019-01-23T00:44:27.735Z,18.94
2019-01-23T00:45:24.349Z,18.94
2019-01-23T00:46:20.964Z,18.94
2019-01-23T00:47:17.650Z,18.94
2019-01-23T00:48:14.245Z,18.94
2019-01-23T00:49:10.862Z,18.94
2019-01-23T00:50:07.699Z,18.94
2019-01-23T00:51:04.404Z,18.87
2019-01-23T00:52:01.010Z,18.87
2019-01-23T00:52:57.730Z,18.87
2019-01-23T00:53:54.969Z,18.87
2019-01-23T00:54:51.583Z,18.87
2019-01-23T00:55:48.209Z,18.87
2019-01-23T00:56:44.817Z,18.87
2019-01-23T00:57:41.421Z,18.87
2019-01-23T00:58:38.069Z,18.87
2019-01-23T00:59:34.666Z,18.87
2019-01-23T01:00:31.322Z,18.87
2019-01-23T01:01:28.049Z,18.87
2019-01-23T01:02:24.774Z,18.81
2019-01-23T01:03:21.837Z,18.81
2019-01-23T01:04:18.555Z,18.81
2019-01-23T01:05:15.146Z,18.81
2019-01-23T01:06:11.997Z,18.81
2019-01-23T01:07:08.601Z,18.81
2019-01-23T01:08:05.693Z,18.81
2019-01-23T01:09:03.686Z,18.81
2019-01-23T01:10:00.325Z,18.81
2019-01-23T01:10:57.159Z,18.81
2019-01-23T01:11:53.774Z,18.81
2019-01-23T01:12:50.485Z,18.81
2019-01-23T01:13:47.081Z,18.81
2019-01-23T01:14:44.066Z,18.81
2019-01-23T01:15:40.705Z,18.75
2019-01-23T01:16:37.567Z,18.75
2019-01-23T01:17:34.617Z,18.75
2019-01-23T01:18:31.211Z,18.75
2019-01-23T01:19:27.838Z,18.75
2019-01-23T01:20:24.564Z,18.75
2019-01-23T01:21:21.299Z,18.75
2019-01-23T01:22:17.993Z,18.75
2019-01-23T01:23:14.606Z,18.75
2019-01-23T01:24:11.225Z,18.75
2019-01-23T01:25:08.205Z,18.75
2019-01-23T01:26:04.894Z,18.75
2019-01-23T01:27:01.675Z,18.75
2019-01-23T01:27:58.355Z,18.69
2019-01-23T01:28:56.087Z,18.69
2019-01-23T01:29:53.013Z,18.69
2019-01-23T01:30:49.602Z,18.69
2019-01-23T01:31:46.218Z,18.69
2019-01-23T01:32:42.839Z,18.69
2019-01-23T01:33:41.786Z,18.69
2019-01-23T01:34:38.595Z,18.69
2019-01-23T01:35:35.337Z,18.69
2019-01-23T01:36:31.947Z,18.69
2019-01-23T01:37:28.550Z,18.69
2019-01-23T01:38:25.449Z,18.69
2019-01-23T01:39:22.058Z,18.62
2019-01-23T01:40:18.654Z,18.62
2019-01-23T01:41:15.294Z,18.62
2019-01-23T01:42:12.286Z,18.62
2019-01-23T01:43:08.893Z,18.62
2019-01-23T01:44:05.845Z,18.62
2019-01-23T01:45:02.446Z,18.62
2019-01-23T01:45:59.087Z,18.62
2019-01-23T01:46:55.697Z,18.62
2019-01-23T01:47:52.654Z,18.62
2019-01-23T01:48:51.479Z,18.62
2019-01-23T01:49:48.162Z,18.62
2019-01-23T01:50:44.813Z,18.62
2019-01-23T01:51:41.554Z,18.62
2019-01-23T01:52:38.688Z,18.62
2019-01-23T01:53:35.320Z,18.56
2019-01-23T01:54:32.058Z,18.56
2019-01-23T01:55:28.748Z,18.56
2019-01-23T01:56:25.487Z,18.56
2019-01-23T01:57:22.085Z,18.56
2019-01-23T01:58:18.797Z,18.56
2019-01-23T01:59:15.425Z,18.56
2019-01-23T02:00:12.114Z,18.56
2019-01-23T02:01:08.715Z,18.56
2019-01-23T02:02:05.679Z,18.56
2019-01-23T02:03:02.520Z,18.56
2019-01-23T02:03:59.223Z,18.56
2019-01-23T02:04:55.875Z,18.50
2019-01-23T02:05:52.486Z,18.56
2019-01-23T02:06:49.094Z,18.50
2019-01-23T02:07:45.990Z,18.50
2019-01-23T02:08:42.695Z,18.50
2019-01-23T02:09:39.517Z,18.50
2019-01-23T02:10:36.146Z,18.50
2019-01-23T02:11:32.826Z,18.50
2019-01-23T02:12:29.758Z,18.50
2019-01-23T02:13:26.356Z,18.50
2019-01-23T02:14:22.974Z,18.50
2019-01-23T02:15:19.577Z,18.50
2019-01-23T02:16:16.514Z,18.50
2019-01-23T02:17:13.131Z,18.50
2019-01-23T02:18:10.069Z,18.50
2019-01-23T02:19:06.663Z,18.50
2019-01-23T02:20:03.270Z,18.44
2019-01-23T02:20:59.866Z,18.44
2019-01-23T02:21:56.474Z,18.44
2019-01-23T02:22:53.198Z,18.44
2019-01-23T02:23:49.815Z,18.44
2019-01-23T02:24:46.509Z,18.44
2019-01-23T02:25:43.232Z,18.44
2019-01-23T02:26:40.407Z,18.44
2019-01-23T02:27:37.048Z,18.44
2019-01-23T02:28:33.644Z,18.44
2019-01-23T02:29:30.313Z,18.44
2019-01-23T02:30:26.958Z,18.44
2019-01-23T02:31:23.993Z,18.44
2019-01-23T02:32:20.635Z,18.44
2019-01-23T02:33:17.354Z,18.44
2019-01-23T02:34:15.523Z,18.44
2019-01-23T02:35:12.190Z,18.37
2019-01-23T02:36:08.801Z,18.44
2019-01-23T02:37:05.397Z,18.37
2019-01-23T02:38:02.018Z,18.37
2019-01-23T02:38:58.625Z,18.37
2019-01-23T02:39:55.236Z,18.37
2019-01-23T02:40:51.991Z,18.37
2019-01-23T02:41:48.690Z,18.37
2019-01-23T02:42:45.303Z,18.37
2019-01-23T02:43:42.207Z,18.37
2019-01-23T02:44:38.810Z,18.37
2019-01-23T02:45:35.406Z,18.37
2019-01-23T02:46:32.019Z,18.37
2019-01-23T02:47:28.615Z,18.37
2019-01-23T02:48:25.259Z,18.37
2019-01-23T02:49:21.950Z,18.37
2019-01-23T02:50:18.634Z,18.37
2019-01-23T02:51:15.230Z,18.37
2019-01-23T02:52:11.834Z,18.31
2019-01-23T02:53:10.215Z,18.31
2019-01-23T02:54:06.947Z,18.31
2019-01-23T02:55:03.663Z,18.31
2019-01-23T02:56:00.586Z,18.31
2019-01-23T02:56:59.450Z,18.31
2019-01-23T02:57:56.065Z,18.31
2019-01-23T02:58:55.758Z,18.31
2019-01-23T02:59:52.369Z,18.31
2019-01-23T03:00:48.978Z,18.31
2019-01-23T03:01:45.847Z,18.31
2019-01-23T03:02:42.446Z,18.31
2019-01-23T03:03:39.086Z,18.31
2019-01-23T03:04:35.690Z,18.31
2019-01-23T03:05:32.284Z,18.31
2019-01-23T03:06:28.922Z,18.31
2019-01-23T03:07:25.501Z,18.31
2019-01-23T03:08:22.187Z,18.25
2019-01-23T03:09:18.895Z,18.25
2019-01-23T03:10:15.482Z,18.25
2019-01-23T03:11:12.095Z,18.25
2019-01-23T03:12:08.693Z,18.25
2019-01-23T03:13:05.314Z,18.25
2019-01-23T03:14:02.176Z,18.25
2019-01-23T03:14:58.882Z,18.25
2019-01-23T03:15:55.495Z,18.25
2019-01-23T03:16:52.455Z,18.25
2019-01-23T03:17:49.053Z,18.25
2019-01-23T03:18:45.660Z,18.25
2019-01-23T03:19:42.635Z,18.25
2019-01-23T03:20:39.225Z,18.25
2019-01-23T03:21:35.822Z,18.25
2019-01-23T03:22:32.438Z,18.25
2019-01-23T03:23:29.410Z,18.25
2019-01-23T03:24:26.313Z,18.25
2019-01-23T03:25:22.990Z,18.19
2019-01-23T03:26:19.616Z,18.25
2019-01-23T03:27:16.240Z,18.19
2019-01-23T03:28:12.831Z,18.19
2019-01-23T03:29:09.461Z,18.19
2019-01-23T03:30:06.179Z,18.19
2019-01-23T03:31:02.879Z,18.19
2019-01-23T03:31:59.558Z,18.19
2019-01-23T03:32:56.457Z,18.19
2019-01-23T03:33:53.086Z,18.19
2019-01-23T03:34:49.730Z,18.19
2019-01-23T03:35:46.920Z,18.19
2019-01-23T03:36:43.637Z,18.19
2019-01-23T03:37:40.230Z,18.19
2019-01-23T03:38:36.833Z,18.19
2019-01-23T03:39:33.442Z,18.19
2019-01-23T03:40:30.030Z,18.19
2019-01-23T03:41:27.845Z,18.19
2019-01-23T03:42:24.451Z,18.19
2019-01-23T03:43:23.361Z,18.12
2019-01-23T03:44:20.053Z,18.12
2019-01-23T03:45:16.734Z,18.12
2019-01-23T03:46:13.374Z,18.12
2019-01-23T03:47:10.086Z,18.12
2019-01-23T03:48:07.022Z,18.12
2019-01-23T03:49:03.710Z,18.12
2019-01-23T03:50:00.483Z,18.12
2019-01-23T03:50:57.153Z,18.12
2019-01-23T03:51:53.779Z,18.12
2019-01-23T03:52:50.407Z,18.12
2019-01-23T03:53:47.429Z,18.12
2019-01-23T03:54:44.013Z,18.12
2019-01-23T03:55:41.154Z,18.12
2019-01-23T03:56:37.844Z,18.12
2019-01-23T03:57:34.425Z,18.12
2019-01-23T03:58:31.097Z,18.12
2019-01-23T03:59:32.134Z,18.12
2019-01-23T04:00:26.302Z,18.12
2019-01-23T04:01:22.906Z,18.06
2019-01-23T04:02:19.505Z,18.06
2019-01-23T04:03:16.120Z,18.06
2019-01-23T04:04:12.911Z,18.12
2019-01-23T04:05:09.504Z,18.06
2019-01-23T04:06:06.123Z,18.06
2019-01-23T04:07:02.746Z,18.06
2019-01-23T04:07:59.378Z,18.06
2019-01-23T04:08:55.995Z,18.06
2019-01-23T04:09:52.934Z,18.06
2019-01-23T04:10:49.894Z,18.06
2019-01-23T04:11:46.523Z,18.06
2019-01-23T04:12:43.117Z,18.06
2019-01-23T04:13:39.693Z,18.06
2019-01-23T04:14:36.321Z,18.06
2019-01-23T04:15:33.419Z,18.06
2019-01-23T04:16:30.070Z,18.06
2019-01-23T04:17:26.747Z,18.06
2019-01-23T04:18:23.358Z,18.06
2019-01-23T04:19:19.955Z,18.06
2019-01-23T04:20:16.551Z,18.00
2019-01-23T04:21:13.185Z,18.06
2019-01-23T04:22:09.793Z,18.00
2019-01-23T04:23:06.383Z,18.00
2019-01-23T04:24:02.984Z,18.00
2019-01-23T04:25:00.751Z,18.00
2019-01-23T04:25:57.521Z,18.00
2019-01-23T04:26:57.339Z,18.00
2019-01-23T04:27:54.053Z,18.00
2019-01-23T04:28:51.225Z,18.00
2019-01-23T04:29:47.842Z,18.00
2019-01-23T04:30:44.611Z,18.00
2019-01-23T04:31:41.358Z,18.00
2019-01-23T04:32:38.064Z,18.00
2019-01-23T04:33:34.663Z,18.00
2019-01-23T04:34:31.395Z,18.00
2019-01-23T04:35:28.011Z,18.00
2019-01-23T04:36:24.614Z,18.00
2019-01-23T04:37:21.256Z,18.00
2019-01-23T04:38:17.966Z,17.94
2019-01-23T04:39:16.942Z,18.00
2019-01-23T04:40:13.606Z,18.00
2019-01-23T04:41:10.191Z,17.94
2019-01-23T04:42:06.825Z,17.94
2019-01-23T04:43:03.443Z,17.94
2019-01-23T04:44:00.044Z,17.94
2019-01-23T04:44:56.648Z,17.94
2019-01-23T04:45:53.263Z,17.94
2019-01-23T04:46:49.943Z,17.94
2019-01-23T04:47:46.754Z,17.94
2019-01-23T04:48:43.367Z,17.94
2019-01-23T04:49:41.768Z,17.94
2019-01-23T04:50:57.864Z,17.94
2019-01-23T04:52:05.451Z,17.94
2019-01-23T04:53:11.578Z,17.94
2019-01-23T04:54:11.193Z,17.69
2019-01-23T04:55:07.794Z,17.12
2019-01-23T04:56:04.383Z,17.06
2019-01-23T04:57:01.258Z,17.12
2019-01-23T04:57:57.993Z,17.87
2019-01-23T04:58:54.875Z,19.56
2019-01-23T04:59:51.559Z,22.00
2019-01-23T05:00:49.874Z,24.50
2019-01-23T05:01:46.540Z,26.75
2019-01-23T05:02:43.249Z,28.38
2019-01-23T05:03:39.889Z,29.63
2019-01-23T05:04:36.576Z,30.44
2019-01-23T05:05:33.305Z,31.06
2019-01-23T05:06:29.997Z,31.56
2019-01-23T05:07:26.654Z,31.87
2019-01-23T05:08:23.313Z,32.13
2019-01-23T05:09:20.050Z,32.38
2019-01-23T05:10:16.638Z,32.56
2019-01-23T05:11:13.246Z,32.75
2019-01-23T05:12:11.062Z,32.94
2019-01-23T05:13:07.786Z,33.06
2019-01-23T05:14:04.418Z,33.25
2019-01-23T05:15:01.026Z,33.44
2019-01-23T05:15:57.630Z,33.56
2019-01-23T05:16:54.554Z,33.69
2019-01-23T05:17:51.142Z,33.81
2019-01-23T05:18:47.761Z,34.00
2019-01-23T05:19:44.491Z,34.19
2019-01-23T05:20:41.286Z,34.31
2019-01-23T05:21:37.981Z,34.44
2019-01-23T05:22:34.895Z,34.56
2019-01-23T05:23:31.490Z,34.69
2019-01-23T05:24:28.111Z,34.81
2019-01-23T05:25:24.733Z,34.94
2019-01-23T05:26:21.336Z,35.06
2019-01-23T05:27:17.946Z,35.19
2019-01-23T05:28:14.655Z,35.31
2019-01-23T05:29:11.451Z,35.50
2019-01-23T05:30:08.184Z,35.56
2019-01-23T05:31:04.949Z,35.69
2019-01-23T05:32:02.738Z,35.81
2019-01-23T05:32:59.690Z,35.88
2019-01-23T05:33:56.559Z,36.00
2019-01-23T05:34:53.214Z,36.13
2019-01-23T05:35:49.835Z,36.25
2019-01-23T05:36:46.418Z,36.31
2019-01-23T05:37:43.039Z,36.44
2019-01-23T05:38:39.978Z,36.50
2019-01-23T05:39:36.602Z,36.63
2019-01-23T05:40:33.251Z,36.69
2019-01-23T05:41:29.866Z,36.81
2019-01-23T05:42:26.546Z,36.88
2019-01-23T05:43:23.296Z,37.00
2019-01-23T05:44:20.011Z,37.06
2019-01-23T05:45:16.664Z,37.13
2019-01-23T05:46:13.875Z,37.25
2019-01-23T05:47:10.497Z,37.31
2019-01-23T05:48:07.107Z,37.31
2019-01-23T05:49:03.714Z,37.44
2019-01-23T05:50:00.338Z,37.44
2019-01-23T05:50:57.233Z,37.50
2019-01-23T05:51:53.874Z,37.63
2019-01-23T05:52:50.478Z,37.69
2019-01-23T05:53:47.094Z,37.75
2019-01-23T05:54:43.689Z,37.88
2019-01-23T05:55:40.313Z,37.88
2019-01-23T05:56:37.183Z,37.94
2019-01-23T05:57:33.874Z,38.00
2019-01-23T05:58:30.479Z,38.06
2019-01-23T05:59:27.082Z,38.19
2019-01-23T06:00:23.706Z,38.25
2019-01-23T06:01:20.363Z,38.31
2019-01-23T06:02:16.979Z,38.38
2019-01-23T06:03:13.685Z,38.50
2019-01-23T06:04:10.314Z,38.56
2019-01-23T06:05:06.914Z,38.63
2019-01-23T06:06:03.550Z,38.69
2019-01-23T06:07:00.253Z,38.75
2019-01-23T06:07:57.072Z,38.81
2019-01-23T06:08:53.754Z,38.88
2019-01-23T06:09:53.182Z,38.88
2019-01-23T06:10:49.824Z,38.88
2019-01-23T06:11:46.470Z,38.88
2019-01-23T06:12:43.166Z,38.88
2019-01-23T06:13:39.850Z,38.94
2019-01-23T06:14:36.482Z,38.94
2019-01-23T06:15:33.096Z,39.00
2019-01-23T06:16:29.791Z,39.06
2019-01-23T06:17:26.423Z,39.13
2019-01-23T06:18:23.143Z,39.13
2019-01-23T06:19:19.838Z,39.19
2019-01-23T06:20:17.714Z,39.25
2019-01-23T06:21:14.366Z,39.31
2019-01-23T06:22:10.991Z,39.38
2019-01-23T06:23:07.897Z,39.56
2019-01-23T06:24:04.585Z,39.63
2019-01-23T06:25:01.202Z,39.75
2019-01-23T06:26:01.377Z,39.81
2019-01-23T06:27:00.059Z,39.94
2019-01-23T06:27:56.658Z,40.00
2019-01-23T06:28:53.260Z,40.06
2019-01-23T06:29:49.947Z,40.19
2019-01-23T06:30:49.586Z,40.25
2019-01-23T06:31:46.294Z,40.38
2019-01-23T06:32:42.940Z,40.44
2019-01-23T06:33:39.543Z,40.56
2019-01-23T06:34:36.255Z,40.50
2019-01-23T06:35:32.960Z,40.44
2019-01-23T06:36:29.626Z,40.19
2019-01-23T06:37:26.345Z,40.06
2019-01-23T06:38:22.954Z,39.94
2019-01-23T06:39:19.914Z,39.81
2019-01-23T06:40:16.517Z,39.75
2019-01-23T06:41:13.113Z,39.69
2019-01-23T06:42:10.171Z,39.63
2019-01-23T06:43:06.920Z,39.56
2019-01-23T06:44:03.667Z,39.50
2019-01-23T06:45:00.677Z,39.44
2019-01-23T06:45:57.289Z,39.38
2019-01-23T06:46:53.884Z,39.38
2019-01-23T06:47:50.514Z,39.38
2019-01-23T06:48:47.115Z,39.31
2019-01-23T06:49:43.723Z,39.25
2019-01-23T06:50:40.330Z,39.06
2019-01-23T06:51:36.927Z,38.56
2019-01-23T06:52:36.008Z,37.69
2019-01-23T06:53:32.730Z,36.31
2019-01-23T06:54:29.349Z,34.81
2019-01-23T06:55:25.947Z,33.50
2019-01-23T06:56:22.543Z,32.94
2019-01-23T06:57:19.178Z,33.56
2019-01-23T06:58:17.179Z,34.81
2019-01-23T06:59:13.812Z,36.13
2019-01-23T07:00:16.900Z,37.19
2019-01-23T07:01:09.051Z,38.06
2019-01-23T07:02:05.746Z,38.63
2019-01-23T07:03:02.805Z,39.00
2019-01-23T07:03:59.408Z,39.38
2019-01-23T07:04:56.109Z,39.63
2019-01-23T07:05:52.712Z,39.88
2019-01-23T07:06:49.490Z,40.06
2019-01-23T07:07:46.193Z,40.19
2019-01-23T07:08:42.829Z,40.31
2019-01-23T07:09:39.593Z,40.44
2019-01-23T07:10:36.489Z,40.56
2019-01-23T07:11:34.212Z,40.69
2019-01-23T07:12:30.837Z,40.81
2019-01-23T07:13:28.771Z,40.88
2019-01-23T07:14:25.581Z,40.75
2019-01-23T07:15:22.247Z,40.50
2019-01-23T07:16:18.982Z,40.31
2019-01-23T07:17:15.661Z,40.25
2019-01-23T07:18:12.358Z,40.06
2019-01-23T07:19:09.032Z,39.88
2019-01-23T07:20:05.837Z,39.75
2019-01-23T07:21:02.520Z,39.69
2019-01-23T07:21:59.151Z,39.63
2019-01-23T07:22:55.775Z,39.56
2019-01-23T07:23:52.566Z,39.50
2019-01-23T07:24:52.247Z,39.38
2019-01-23T07:25:48.967Z,39.06
2019-01-23T07:26:45.678Z,38.50
2019-01-23T07:27:42.394Z,37.56
2019-01-23T07:28:39.027Z,36.31
2019-01-23T07:29:35.976Z,34.94
2019-01-23T07:30:33.877Z,33.69
2019-01-23T07:31:30.556Z,33.13
2019-01-23T07:32:27.164Z,33.75
2019-01-23T07:33:23.876Z,35.00
2019-01-23T07:34:20.646Z,36.38
2019-01-23T07:35:17.250Z,37.50
2019-01-23T07:36:13.877Z,38.38
2019-01-23T07:37:12.355Z,39.06
2019-01-23T07:38:08.951Z,39.63
2019-01-23T07:39:05.595Z,40.06
2019-01-23T07:40:02.205Z,40.38
2019-01-23T07:40:58.935Z,40.56
2019-01-23T07:41:55.536Z,40.81
2019-01-23T07:42:53.542Z,41.00
2019-01-23T07:43:50.389Z,41.00
2019-01-23T07:44:48.363Z,40.75
2019-01-23T07:45:45.077Z,40.50
2019-01-23T07:46:44.518Z,40.25
2019-01-23T07:47:41.143Z,40.06
2019-01-23T07:48:37.792Z,39.94
2019-01-23T07:49:34.557Z,39.81
2019-01-23T07:50:31.161Z,39.69
2019-01-23T07:51:27.786Z,39.63
2019-01-23T07:52:24.415Z,39.50
2019-01-23T07:53:21.064Z,39.44
2019-01-23T07:54:17.781Z,39.38
2019-01-23T07:55:14.646Z,39.13
2019-01-23T07:56:11.278Z,38.63
2019-01-23T07:57:08.100Z,37.81
2019-01-23T07:58:07.745Z,36.69
2019-01-23T07:59:04.639Z,35.25
2019-01-23T08:00:01.501Z,33.94
2019-01-23T08:00:58.286Z,33.13
2019-01-23T08:01:55.012Z,33.44
2019-01-23T08:02:51.646Z,34.56
2019-01-23T08:03:48.490Z,36.00
2019-01-23T08:04:45.197Z,37.25
2019-01-23T08:05:42.296Z,38.19
2019-01-23T08:06:39.169Z,38.94
2019-01-23T08:07:35.802Z,39.63
2019-01-23T08:08:32.438Z,40.06
2019-01-23T08:09:29.069Z,40.44
2019-01-23T08:10:25.967Z,40.75
2019-01-23T08:11:22.727Z,40.94
2019-01-23T08:12:19.458Z,40.94
2019-01-23T08:13:16.174Z,40.75
2019-01-23T08:14:13.018Z,40.50
2019-01-23T08:15:09.758Z,40.25
2019-01-23T08:16:06.383Z,40.06
2019-01-23T08:17:02.977Z,39.88
2019-01-23T08:17:59.575Z,39.75
2019-01-23T08:18:56.175Z,39.63
2019-01-23T08:19:52.857Z,39.56
2019-01-23T08:20:49.599Z,39.44
2019-01-23T08:21:46.259Z,39.38
2019-01-23T08:22:42.875Z,39.25
2019-01-23T08:23:39.640Z,38.88
2019-01-23T08:24:36.411Z,38.31
2019-01-23T08:25:33.119Z,37.38
2019-01-23T08:26:29.882Z,36.25
2019-01-23T08:27:26.599Z,34.88
2019-01-23T08:28:23.248Z,33.69
2019-01-23T08:29:20.446Z,33.19
2019-01-23T08:30:18.284Z,33.75
2019-01-23T08:31:19.467Z,35.13
2019-01-23T08:32:16.008Z,36.69
2019-01-23T08:33:12.830Z,37.88
2019-01-23T08:34:09.450Z,38.94
2019-01-23T08:35:06.068Z,39.75
2019-01-23T08:36:02.774Z,40.44
2019-01-23T08:36:59.435Z,40.81
2019-01-23T08:37:56.172Z,40.94
2019-01-23T08:38:52.890Z,40.75
2019-01-23T08:39:49.590Z,40.50
2019-01-23T08:40:46.210Z,40.31
2019-01-23T08:41:42.878Z,40.06
2019-01-23T08:42:39.524Z,39.94
2019-01-23T08:43:36.143Z,39.75
2019-01-23T08:44:32.872Z,39.63
2019-01-23T08:45:29.487Z,39.50
2019-01-23T08:46:26.224Z,39.38
2019-01-23T08:47:22.964Z,39.13
2019-01-23T08:48:21.859Z,38.69
2019-01-23T08:49:18.526Z,37.94
2019-01-23T08:50:15.159Z,37.00
2019-01-23T08:51:11.898Z,35.75
2019-01-23T08:52:08.634Z,34.50
2019-01-23T08:53:05.367Z,33.50
2019-01-23T08:54:02.082Z,33.25
2019-01-23T08:54:58.819Z,34.13
2019-01-23T08:55:55.450Z,35.56
2019-01-23T08:56:52.065Z,37.00
2019-01-23T08:57:48.839Z,38.00
2019-01-23T08:58:45.447Z,38.56
2019-01-23T08:59:43.504Z,38.81
2019-01-23T09:00:45.836Z,39.00
2019-01-23T09:01:38.702Z,39.13
2019-01-23T09:02:35.350Z,39.19
2019-01-23T09:03:32.434Z,39.31
2019-01-23T09:04:29.078Z,39.38
2019-01-23T09:05:25.798Z,39.63
2019-01-23T09:06:22.509Z,40.12
2019-01-23T09:07:19.201Z,40.63
2019-01-23T09:08:15.850Z,40.75
2019-01-23T09:09:18.615Z,40.63
2019-01-23T09:10:17.972Z,40.38
2019-01-23T09:11:14.717Z,40.12
2019-01-23T09:12:11.627Z,39.88
2019-01-23T09:13:08.254Z,39.63
2019-01-23T09:14:04.875Z,39.44
2019-01-23T09:15:01.473Z,39.31
2019-01-23T09:15:58.425Z,39.06
2019-01-23T09:16:55.035Z,38.63
2019-01-23T09:17:51.657Z,37.94
2019-01-23T09:18:48.298Z,37.13
2019-01-23T09:19:45.259Z,36.13
2019-01-23T09:20:41.892Z,35.00
2019-01-23T09:21:38.729Z,33.94
2019-01-23T09:22:38.219Z,33.31
2019-01-23T09:23:35.009Z,33.69
2019-01-23T09:24:32.002Z,35.00
2019-01-23T09:25:28.619Z,36.56
2019-01-23T09:26:25.366Z,38.06
2019-01-23T09:27:22.098Z,39.38
2019-01-23T09:28:18.859Z,40.19
2019-01-23T09:29:18.572Z,40.38
2019-01-23T09:30:15.409Z,40.25
2019-01-23T09:31:12.130Z,40.06
2019-01-23T09:32:08.762Z,39.88
2019-01-23T09:33:05.554Z,39.69
2019-01-23T09:34:02.309Z,39.63
2019-01-23T09:34:58.984Z,39.44
2019-01-23T09:35:55.666Z,39.19
2019-01-23T09:36:52.300Z,38.81
2019-01-23T09:37:49.222Z,38.19
2019-01-23T09:38:45.935Z,37.38
2019-01-23T09:39:42.559Z,36.38
2019-01-23T09:40:39.587Z,35.25
2019-01-23T09:41:36.302Z,34.13
2019-01-23T09:42:33.155Z,33.19
2019-01-23T09:43:29.898Z,33.00
2019-01-23T09:44:26.646Z,33.88
2019-01-23T09:45:23.330Z,35.31
2019-01-23T09:46:19.938Z,36.81
2019-01-23T09:47:17.779Z,38.19
2019-01-23T09:48:14.449Z,39.31
2019-01-23T09:49:11.075Z,40.19
2019-01-23T09:50:07.830Z,40.56
2019-01-23T09:51:04.453Z,40.44
2019-01-23T09:52:01.158Z,40.19
2019-01-23T09:52:57.772Z,40.00
2019-01-23T09:53:55.806Z,39.69
2019-01-23T09:54:52.430Z,39.44
2019-01-23T09:55:49.040Z,39.13
2019-01-23T09:56:48.554Z,38.75
2019-01-23T09:57:45.478Z,38.13
2019-01-23T09:58:42.187Z,37.19
2019-01-23T09:59:38.978Z,36.06
2019-01-23T10:00:35.678Z,34.94
2019-01-23T10:01:35.654Z,33.94
2019-01-23T10:02:32.439Z,33.00
2019-01-23T10:03:29.215Z,32.06
2019-01-23T10:04:25.938Z,31.25
2019-01-23T10:05:22.576Z,30.50
2019-01-23T10:06:19.326Z,29.94
2019-01-23T10:07:16.106Z,29.50
2019-01-23T10:08:13.346Z,29.19
2019-01-23T10:09:10.103Z,28.94
2019-01-23T10:10:06.765Z,28.69
2019-01-23T10:11:04.192Z,28.50
2019-01-23T10:12:00.794Z,28.38
2019-01-23T10:13:00.559Z,28.19
2019-01-23T10:13:57.294Z,28.00
2019-01-23T10:14:53.917Z,27.81
2019-01-23T10:15:50.542Z,27.69
2019-01-23T10:16:47.161Z,27.56
2019-01-23T10:17:43.782Z,27.50
2019-01-23T10:18:42.010Z,27.37
2019-01-23T10:19:38.610Z,27.25
2019-01-23T10:20:35.236Z,27.13
2019-01-23T10:21:31.837Z,27.06
2019-01-23T10:22:28.425Z,26.94
2019-01-23T10:23:25.031Z,26.81
2019-01-23T10:24:21.663Z,26.75
2019-01-23T10:25:18.650Z,26.69
2019-01-23T10:26:16.027Z,26.56
2019-01-23T10:27:12.727Z,26.44
2019-01-23T10:28:09.340Z,26.37
2019-01-23T10:29:05.971Z,26.31
2019-01-23T10:30:02.670Z,26.25
2019-01-23T10:30:59.443Z,26.12
2019-01-23T10:31:56.087Z,26.06
2019-01-23T10:32:52.708Z,26.00
2019-01-23T10:33:49.876Z,25.94
2019-01-23T10:34:46.594Z,25.88
2019-01-23T10:35:43.202Z,25.75
2019-01-23T10:36:43.781Z,25.69
2019-01-23T10:37:40.510Z,25.62
2019-01-23T10:38:37.186Z,25.56
2019-01-23T10:39:33.984Z,25.50
2019-01-23T10:40:31.083Z,25.44
2019-01-23T10:41:28.142Z,25.37
2019-01-23T10:42:24.772Z,25.31
2019-01-23T10:43:21.726Z,25.25
2019-01-23T10:44:18.421Z,25.19
2019-01-23T10:45:16.248Z,25.12
2019-01-23T10:46:12.995Z,25.06
2019-01-23T10:47:09.715Z,25.00
2019-01-23T10:48:06.483Z,24.94
2019-01-23T10:49:03.103Z,24.87
2019-01-23T10:49:59.727Z,24.81
2019-01-23T10:50:56.349Z,24.75
2019-01-23T10:51:53.036Z,24.69
2019-01-23T10:52:49.795Z,24.63
2019-01-23T10:53:46.526Z,24.56
2019-01-23T10:54:43.397Z,24.56
2019-01-23T10:55:40.087Z,24.50
2019-01-23T10:56:36.748Z,24.44
2019-01-23T10:57:33.559Z,24.37
2019-01-23T10:58:30.186Z,24.37
2019-01-23T10:59:26.805Z,24.31
2019-01-23T11:00:23.401Z,24.25
2019-01-23T11:01:19.998Z,24.19
2019-01-23T11:02:16.655Z,24.19
2019-01-23T11:03:13.381Z,24.12
2019-01-23T11:04:10.003Z,24.06
2019-01-23T11:05:06.629Z,24.06
2019-01-23T11:06:03.352Z,24.00
2019-01-23T11:07:00.382Z,23.94
2019-01-23T11:08:03.193Z,23.94
2019-01-23T11:08:59.912Z,23.87
2019-01-23T11:09:59.307Z,23.81
2019-01-23T11:10:56.411Z,23.81
2019-01-23T11:11:53.302Z,23.75
2019-01-23T11:12:52.753Z,23.69
2019-01-23T11:13:49.352Z,23.62
2019-01-23T11:14:45.953Z,23.62
2019-01-23T11:15:42.576Z,23.56
2019-01-23T11:16:39.258Z,23.56
2019-01-23T11:17:38.949Z,23.50
2019-01-23T11:18:35.551Z,23.50
2019-01-23T11:19:32.244Z,23.44
2019-01-23T11:20:28.876Z,23.38
2019-01-23T11:21:25.763Z,23.38
2019-01-23T11:22:22.868Z,23.31
2019-01-23T11:23:19.920Z,23.25
2019-01-23T11:24:16.634Z,23.25
2019-01-23T11:25:13.259Z,23.19
2019-01-23T11:26:10.225Z,23.19
2019-01-23T11:27:06.980Z,23.12
2019-01-23T11:28:03.705Z,23.12
2019-01-23T11:29:00.324Z,23.06
2019-01-23T11:29:56.922Z,23.06
2019-01-23T11:30:53.550Z,23.00
2019-01-23T11:31:50.198Z,22.94
2019-01-23T11:32:46.827Z,22.94
2019-01-23T11:33:44.759Z,22.87
2019-01-23T11:34:41.628Z,22.87
2019-01-23T11:35:38.250Z,22.81
2019-01-23T11:36:34.886Z,22.81
2019-01-23T11:37:31.668Z,22.75
2019-01-23T11:38:28.631Z,22.75
2019-01-23T11:39:25.426Z,22.69
2019-01-23T11:40:22.090Z,23.31
2019-01-23T11:41:18.778Z,23.87
2019-01-23T11:42:15.403Z,23.87
2019-01-23T11:43:12.415Z,23.75
2019-01-23T11:44:09.022Z,23.56
2019-01-23T11:45:05.807Z,23.50
2019-01-23T11:46:02.547Z,23.50
2019-01-23T11:46:59.247Z,23.56
2019-01-23T11:47:56.009Z,23.56
2019-01-23T11:48:52.717Z,23.56
2019-01-23T11:49:52.272Z,23.62
2019-01-23T11:50:49.027Z,23.62
2019-01-23T11:51:45.754Z,23.62
2019-01-23T11:52:42.409Z,23.62
2019-01-23T11:53:39.134Z,23.62
2019-01-23T11:54:35.921Z,23.62
2019-01-23T11:55:32.560Z,23.62
2019-01-23T11:56:30.642Z,23.62
2019-01-23T11:57:27.385Z,23.56
2019-01-23T11:58:24.179Z,23.56
2019-01-23T11:59:23.611Z,23.50
2019-01-23T12:00:20.327Z,23.44
2019-01-23T12:01:16.950Z,23.38
2019-01-23T12:02:13.913Z,23.38
2019-01-23T12:03:10.577Z,23.31
2019-01-23T12:04:07.294Z,23.31
2019-01-23T12:05:04.127Z,23.31
2019-01-23T12:06:00.746Z,23.25
2019-01-23T12:06:57.355Z,23.25
2019-01-23T12:07:54.310Z,23.25
2019-01-23T12:08:50.930Z,23.19
2019-01-23T12:09:47.571Z,23.19
2019-01-23T12:10:44.614Z,23.19
2019-01-23T12:11:41.250Z,23.12
2019-01-23T12:12:39.131Z,23.12
2019-01-23T12:13:35.860Z,23.12